Time;durP1;ratioP1;P1;durP2;ratioP2;P2;SDS_P1;SDS_P2;PMS_P1;PMS_P2;Temp;Humidity;BMP_temperature;BMP_pressure;BME280_temperature;BME280_humidity;BME280_pressure;Samples;Min_cycle;Max_cycle;Signal;HPM_P1;HPM_P2
2021/07/07 00:01:11;;;;;;;29.02;15.20;;;691.20;1433.60;;;;;;5034484;28;20421;-56
2021/07/07 00:03:37;;;;;;;21.98;15.43;;;691.20;1433.60;;;;;;5034653;28;20056;-59
2021/07/07 00:06:03;;;;;;;19.23;15.85;;;691.20;1433.60;;;;;;5034583;28;20049;-57
2021/07/07 00:08:29;;;;;;;29.20;15.38;;;691.20;1433.60;;;;;;5016402;28;20374;-60
2021/07/07 00:10:55;;;;;;;23.45;14.20;;;666.50;1459.20;;;;;;5034295;28;20050;-58
2021/07/07 00:13:21;;;;;;;22.15;15.82;;;666.40;1459.20;;;;;;5034387;28;20014;-56
2021/07/07 00:15:47;;;;;;;25.25;15.88;;;666.40;1459.20;;;;;;5016764;28;20100;-59
2021/07/07 00:18:14;;;;;;;29.67;15.25;;;666.40;1459.20;;;;;;5031615;28;20017;-59
2021/07/07 00:20:46;;;;;;;27.08;14.90;;;666.40;1459.20;;;;;;5034214;28;20104;-56
2021/07/07 00:23:14;;;;;;;30.88;15.85;;;666.40;1459.20;;;;;;5034214;28;20025;-56
2021/07/07 00:25:40;;;;;;;24.02;15.63;;;666.40;1459.20;;;;;;5034167;28;20033;-59
2021/07/07 00:28:06;;;;;;;22.08;15.27;;;666.40;1459.20;;;;;;5034628;28;20029;-59
2021/07/07 00:30:32;;;;;;;21.90;15.05;;;666.40;1484.80;;;;;;5034791;28;20022;-59
2021/07/07 00:32:59;;;;;;;27.83;15.48;;;666.40;1459.20;;;;;;5034762;28;20489;-59
2021/07/07 00:35:25;;;;;;;25.15;15.38;;;666.30;1459.20;;;;;;5034514;28;20466;-57
2021/07/07 00:37:51;;;;;;;19.40;15.23;;;666.30;1484.80;;;;;;5034454;28;20036;-56
2021/07/07 00:40:17;;;;;;;22.27;15.93;;;666.30;1484.80;;;;;;5034379;28;20025;-60
2021/07/07 00:42:43;;;;;;;25.67;15.07;;;666.30;1459.20;;;;;;5034346;28;20504;-59
2021/07/07 00:45:10;;;;;;;24.63;15.38;;;666.30;1484.80;;;;;;5034294;28;20017;-59
2021/07/07 00:47:37;;;;;;;22.00;15.48;;;666.20;1484.80;;;;;;5034833;28;20053;-59
2021/07/07 00:50:04;;;;;;;19.50;15.68;;;666.30;1484.80;;;;;;5034257;28;20057;-58
2021/07/07 00:52:30;;;;;;;27.30;16.05;;;666.20;1484.80;;;;;;5034765;28;20386;-57
2021/07/07 00:54:56;;;;;;;23.15;15.90;;;666.20;1484.80;;;;;;5034170;28;20021;-60
2021/07/07 00:57:25;;;;;;;25.17;15.85;;;666.30;1484.80;;;;;;5034113;28;20089;-58
2021/07/07 00:59:54;;;;;;;27.67;16.15;;;666.20;1484.80;;;;;;5034292;28;20029;-59
2021/07/07 01:02:21;;;;;;;28.45;17.02;;;666.20;1484.80;;;;;;5034227;28;20037;-60
2021/07/07 01:04:47;;;;;;;22.83;16.52;;;666.10;1510.40;;;;;;5034495;28;20026;-59
2021/07/07 01:07:13;;;;;;;18.08;14.68;;;666.10;1510.40;;;;;;5033864;28;20029;-60
2021/07/07 01:09:39;;;;;;;28.20;16.00;;;666.00;1510.40;;;;;;5033360;28;20041;-59
2021/07/07 01:12:07;;;;;;;23.27;15.60;;;666.00;1510.40;;;;;;5033742;28;20029;-60
2021/07/07 01:14:34;;;;;;;20.88;16.55;;;666.00;1510.40;;;;;;5033731;28;20442;-59
2021/07/07 01:17:01;;;;;;;24.02;16.55;;;665.90;1510.40;;;;;;5033826;28;20509;-56
2021/07/07 01:19:27;;;;;;;21.77;15.45;;;665.90;1536.00;;;;;;5033127;28;20029;-60
2021/07/07 01:21:53;;;;;;;23.55;15.43;;;665.90;1510.40;;;;;;5034294;28;20044;-59
2021/07/07 01:24:20;;;;;;;23.00;16.38;;;665.80;1510.40;;;;;;5033662;28;20021;-58
2021/07/07 01:26:47;;;;;;;27.02;15.32;;;665.80;1536.00;;;;;;5033642;28;20032;-60
2021/07/07 01:29:14;;;;;;;21.10;15.70;;;665.80;1536.00;;;;;;5033658;28;20151;-58
2021/07/07 01:31:42;;;;;;;23.90;16.27;;;665.70;1536.00;;;;;;5033827;28;20040;-58
2021/07/07 01:34:08;;;;;;;25.05;16.02;;;665.70;1536.00;;;;;;5033558;28;20470;-58
2021/07/07 01:36:35;;;;;;;22.08;15.15;;;665.60;1536.00;;;;;;5033533;28;20033;-56
2021/07/07 01:39:04;;;;;;;23.13;15.27;;;665.60;1536.00;;;;;;5033651;28;20488;-59
2021/07/07 01:41:30;;;;;;;24.73;15.20;;;640.90;1510.40;;;;;;5033480;28;20053;-58
2021/07/07 01:43:56;;;;;;;25.02;15.73;;;640.90;1510.40;;;;;;5033454;28;20028;-58
2021/07/07 01:46:22;;;;;;;24.88;15.57;;;640.90;1510.40;;;;;;5033391;28;20556;-59
2021/07/07 01:48:48;;;;;;;24.45;15.55;;;640.90;1510.40;;;;;;5033441;28;20105;-60
2021/07/07 01:51:14;;;;;;;21.23;16.35;;;640.90;1510.40;;;;;;5033328;28;20037;-60
2021/07/07 01:53:40;;;;;;;26.70;15.60;;;640.80;1510.40;;;;;;5033511;28;20489;-59
2021/07/07 01:56:06;;;;;;;21.33;15.82;;;640.80;1510.40;;;;;;5033890;28;20022;-60
2021/07/07 01:58:32;;;;;;;30.35;17.55;;;640.90;1510.40;;;;;;5033314;28;20028;-60
2021/07/07 02:00:58;;;;;;;25.38;17.05;;;640.80;1536.00;;;;;;5033303;28;20482;-59
2021/07/07 02:03:24;;;;;;;25.23;17.33;;;640.70;1536.00;;;;;;5033265;28;20048;-60
2021/07/07 02:05:49;;;;;;;34.28;18.67;;;640.70;1561.60;;;;;;5033557;28;20485;-60
2021/07/07 02:08:17;;;;;;;33.97;17.75;;;640.70;1536.00;;;;;;5033241;28;20382;-55
2021/07/07 02:10:43;;;;;;;34.20;18.77;;;640.70;1561.60;;;;;;5032972;28;20081;-59
2021/07/07 02:13:11;;;;;;;34.70;19.33;;;640.60;1561.60;;;;;;5033157;28;20028;-59
2021/07/07 02:15:37;;;;;;;33.13;18.77;;;640.60;1561.60;;;;;;5033199;28;20044;-58
2021/07/07 02:18:05;;;;;;;42.47;19.15;;;640.60;1561.60;;;;;;5033178;28;20026;-59
2021/07/07 02:20:35;;;;;;;31.00;18.10;;;640.60;1536.00;;;;;;5033150;28;20504;-59
2021/07/07 02:23:02;;;;;;;27.70;18.20;;;640.60;1536.00;;;;;;5033451;28;20139;-57
2021/07/07 02:25:30;;;;;;;25.15;17.92;;;640.60;1536.00;;;;;;5033128;28;20474;-59
2021/07/07 02:27:58;;;;;;;34.05;17.83;;;640.60;1536.00;;;;;;5033134;28;20029;-57
2021/07/07 02:30:27;;;;;;;25.05;16.77;;;640.60;1536.00;;;;;;5034587;28;20026;-59
2021/07/07 02:32:54;;;;;;;22.67;16.35;;;640.60;1536.00;;;;;;5036792;28;20474;-57
2021/07/07 02:35:24;;;;;;;25.45;16.35;;;640.50;1561.60;;;;;;5036779;28;20033;-58
2021/07/07 02:37:53;;;;;;;28.40;15.85;;;640.50;1536.00;;;;;;5018933;28;20084;-52
2021/07/07 02:40:20;;;;;;;22.13;15.95;;;640.50;1536.00;;;;;;5036930;28;20052;-60
2021/07/07 02:42:46;;;;;;;24.77;16.92;;;640.50;1536.00;;;;;;5036644;28;20022;-60
2021/07/07 02:45:13;;;;;;;23.52;16.38;;;640.50;1536.00;;;;;;5036603;28;20029;-55
2021/07/07 02:47:40;;;;;;;25.50;16.45;;;640.50;1536.00;;;;;;5018744;28;20026;-59
2021/07/07 02:50:08;;;;;;;21.85;16.55;;;640.40;1536.00;;;;;;5036673;28;20371;-59
2021/07/07 02:52:34;;;;;;;26.33;17.25;;;640.40;1536.00;;;;;;5036659;28;20036;-60
2021/07/07 02:55:00;;;;;;;25.98;17.48;;;640.40;1536.00;;;;;;5036392;28;20025;-59
2021/07/07 02:57:26;;;;;;;25.58;17.50;;;640.30;1536.00;;;;;;5036619;28;20429;-60
2021/07/07 02:59:52;;;;;;;25.77;15.55;;;640.30;1536.00;;;;;;5036306;28;20105;-59
2021/07/07 03:02:18;;;;;;;35.30;16.30;;;640.30;1561.60;;;;;;5036493;28;20084;-59
2021/07/07 03:04:44;;;;;;;39.55;16.25;;;640.30;1561.60;;;;;;5036212;28;20532;-57
2021/07/07 03:07:10;;;;;;;28.25;16.15;;;640.30;1536.00;;;;;;5036080;28;20105;-60
2021/07/07 03:09:36;;;;;;;22.70;15.90;;;640.30;1561.60;;;;;;5035919;28;20079;-58
2021/07/07 03:12:02;;;;;;;28.13;15.52;;;640.30;1561.60;;;;;;5035995;28;20044;-58
2021/07/07 03:14:28;;;;;;;31.77;15.52;;;640.20;1561.60;;;;;;5036235;28;20025;-59
2021/07/07 03:16:54;;;;;;;41.88;16.25;;;640.20;1561.60;;;;;;5036013;28;20036;-56
2021/07/07 03:19:20;;;;;;;31.98;16.25;;;640.20;1561.60;;;;;;5036025;28;20156;-57
2021/07/07 03:21:46;;;;;;;32.70;15.55;;;640.20;1561.60;;;;;;5036236;28;20075;-56
2021/07/07 03:24:12;;;;;;;36.20;15.45;;;640.20;1561.60;;;;;;5035861;28;20033;-60
2021/07/07 03:26:38;;;;;;;105.55;19.67;;;640.20;1561.60;;;;;;5035822;28;20115;-60
2021/07/07 03:29:04;;;;;;;67.13;16.23;;;640.20;1561.60;;;;;;5036019;28;20377;-56
2021/07/07 03:31:30;;;;;;;33.58;15.43;;;640.30;1561.60;;;;;;5035971;28;20037;-59
2021/07/07 03:33:56;;;;;;;30.67;16.13;;;640.30;1561.60;;;;;;5035637;28;20021;-59
2021/07/07 03:36:22;;;;;;;74.85;17.58;;;640.30;1561.60;;;;;;5035640;28;20482;-60
2021/07/07 03:38:48;;;;;;;49.67;16.95;;;640.30;1561.60;;;;;;5035611;28;20029;-54
2021/07/07 03:41:14;;;;;;;30.92;17.95;;;640.20;1561.60;;;;;;5035382;28;20034;-58
2021/07/07 03:43:40;;;;;;;36.13;18.40;;;640.30;1561.60;;;;;;5035544;28;20549;-58
2021/07/07 03:46:06;;;;;;;27.60;17.08;;;640.20;1561.60;;;;;;5035772;28;20064;-60
2021/07/07 03:48:32;;;;;;;92.25;18.10;;;640.20;1561.60;;;;;;5035567;28;20045;-60
2021/07/07 03:50:58;;;;;;;30.13;16.65;;;640.30;1561.60;;;;;;5035937;28;20033;-59
2021/07/07 03:53:24;;;;;;;57.83;17.38;;;640.30;1561.60;;;;;;5035355;28;20024;-60
2021/07/07 03:55:50;;;;;;;49.13;18.00;;;640.30;1561.60;;;;;;5035237;28;20033;-57
2021/07/07 03:58:16;;;;;;;39.10;16.13;;;640.30;1561.60;;;;;;5035184;28;20033;-57
2021/07/07 04:00:41;;;;;;;26.75;16.15;;;640.30;1587.20;;;;;;5035106;28;20025;-62
2021/07/07 04:03:07;;;;;;;35.78;17.73;;;640.20;1561.60;;;;;;5035050;28;20078;-59
2021/07/07 04:05:33;;;;;;;35.97;15.63;;;640.20;1587.20;;;;;;5035132;28;20025;-60
2021/07/07 04:08:00;;;;;;;19.92;14.52;;;640.20;1561.60;;;;;;5035272;28;20104;-60
2021/07/07 04:10:26;;;;;;;57.13;17.30;;;640.30;1587.20;;;;;;5034716;28;20124;-60
2021/07/07 04:12:52;;;;;;;649.30;52.58;;;640.20;1587.20;;;;;;5034911;28;20565;-60
2021/07/07 04:15:19;;;;;;;234.95;26.58;;;640.30;1587.20;;;;;;5017133;28;20017;-59
2021/07/07 04:17:46;;;;;;;42.03;15.85;;;640.30;1561.60;;;;;;5035055;28;20112;-57
2021/07/07 04:20:14;;;;;;;25.23;15.10;;;640.30;1561.60;;;;;;5035109;28;20486;-60
2021/07/07 04:22:41;;;;;;;28.25;15.38;;;640.30;1587.20;;;;;;5016931;28;20478;-59
2021/07/07 04:25:09;;;;;;;26.30;15.57;;;640.30;1561.60;;;;;;5034769;28;20030;-60
2021/07/07 04:27:38;;;;;;;761.75;56.78;;;640.40;1587.20;;;;;;5035144;28;20108;-58
2021/07/07 04:30:07;;;;;;;974.92;65.35;;;640.50;1561.60;;;;;;5034543;28;20025;-60
2021/07/07 04:32:33;;;;;;;522.30;39.20;;;640.50;1561.60;;;;;;5034460;28;20025;-59
2021/07/07 04:34:59;;;;;;;1895.07;143.02;;;640.60;1536.00;;;;;;5034449;28;20032;-60
2021/07/07 04:37:25;;;;;;;249.43;26.02;;;640.60;1561.60;;;;;;5034733;28;20026;-59
2021/07/07 04:39:54;;;;;;;248.20;25.00;;;640.60;1536.00;;;;;;5034386;28;20026;-58
2021/07/07 04:42:20;;;;;;;1691.22;124.55;;;640.70;1536.00;;;;;;5034226;28;20516;-58
2021/07/07 04:44:46;;;;;;;403.02;33.65;;;640.70;1536.00;;;;;;5034327;28;20109;-59
2021/07/07 04:47:12;;;;;;;433.30;36.83;;;640.70;1536.00;;;;;;5034506;28;20044;-60
2021/07/07 04:49:38;;;;;;;49.03;16.17;;;640.80;1536.00;;;;;;5034278;28;20029;-59
2021/07/07 04:52:05;;;;;;;19.90;14.13;;;640.80;1536.00;;;;;;5034105;28;20076;-56
2021/07/07 04:54:34;;;;;;;25.25;15.52;;;640.80;1536.00;;;;;;5033373;28;20045;-58
2021/07/07 04:57:00;;;;;;;31.05;15.77;;;640.90;1536.00;;;;;;5034080;28;20060;-59
2021/07/07 04:59:27;;;;;;;67.40;17.08;;;640.90;1510.40;;;;;;5034334;28;20056;-60
2021/07/07 05:01:53;;;;;;;58.20;16.60;;;665.60;1536.00;;;;;;5034345;28;20022;-57
2021/07/07 05:04:19;;;;;;;406.02;35.80;;;665.70;1536.00;;;;;;5034014;28;20103;-60
2021/07/07 05:06:45;;;;;;;786.63;60.38;;;665.60;1536.00;;;;;;5034476;28;20060;-58
2021/07/07 05:09:11;;;;;;;687.55;53.97;;;665.70;1536.00;;;;;;5033822;28;20056;-59
2021/07/07 05:11:37;;;;;;;883.17;68.28;;;665.80;1536.00;;;;;;5034357;28;20392;-56
2021/07/07 05:14:03;;;;;;;1999.90;243.02;;;665.80;1561.60;;;;;;5033854;28;20026;-57
2021/07/07 05:16:29;;;;;;;1284.80;108.53;;;665.80;1536.00;;;;;;5016030;28;20028;-56
2021/07/07 05:18:55;;;;;;;1082.90;85.93;;;665.80;1536.00;;;;;;5034337;28;20026;-57
2021/07/07 05:21:21;;;;;;;369.33;34.10;;;665.90;1536.00;;;;;;5034276;28;20024;-59
2021/07/07 05:23:47;;;;;;;187.85;24.50;;;665.80;1536.00;;;;;;5033720;28;20029;-59
2021/07/07 05:26:13;;;;;;;35.47;13.93;;;665.90;1536.00;;;;;;5033934;28;20029;-59
2021/07/07 05:28:39;;;;;;;43.78;18.80;;;666.00;1536.00;;;;;;5033611;28;20030;-57
2021/07/07 05:31:06;;;;;;;214.57;21.70;;;666.00;1536.00;;;;;;5015808;28;20041;-59
2021/07/07 05:33:34;;;;;;;293.58;26.65;;;666.10;1510.40;;;;;;5033509;28;20029;-57
2021/07/07 05:36:08;;;;;;;1138.68;81.28;;;666.10;1536.00;;;;;;5033400;28;20029;-57
2021/07/07 05:38:35;;;;;;;645.45;47.53;;;666.10;1536.00;;;;;;5033553;28;20048;-58
2021/07/07 05:41:01;;;;;;;637.75;49.90;;;666.10;1536.00;;;;;;5015737;28;20051;-60
2021/07/07 05:43:28;;;;;;;1547.75;118.10;;;666.20;1510.40;;;;;;5034043;28;20048;-59
2021/07/07 05:45:54;;;;;;;264.13;30.33;;;666.30;1510.40;;;;;;5033945;28;20083;-59
2021/07/07 05:48:20;;;;;;;32.03;13.57;;;666.30;1561.60;;;;;;5033348;28;20021;-55
2021/07/07 05:50:46;;;;;;;59.42;15.45;;;666.30;1536.00;;;;;;5033549;28;20045;-58
2021/07/07 05:53:12;;;;;;;73.35;16.42;;;666.40;1536.00;;;;;;5015605;28;20124;-58
2021/07/07 05:55:38;;;;;;;32.00;13.32;;;666.40;1561.60;;;;;;5033397;28;20097;-54
2021/07/07 05:58:04;;;;;;;545.95;47.60;;;666.40;1510.40;;;;;;5033311;28;20413;-59
2021/07/07 06:00:30;;;;;;;448.50;38.00;;;666.50;1510.40;;;;;;5033527;28;20028;-57
2021/07/07 06:02:57;;;;;;;582.42;47.53;;;666.50;1536.00;;;;;;5033257;28;20029;-55
2021/07/07 06:05:24;;;;;;;101.88;15.82;;;691.20;1510.40;;;;;;5034865;28;20018;-60
2021/07/07 06:07:51;;;;;;;186.73;21.75;;;691.30;1484.80;;;;;;5037302;28;20052;-60
2021/07/07 06:10:22;;;;;;;109.75;17.08;;;691.30;1484.80;;;;;;5036987;28;20084;-60
2021/07/07 06:12:48;;;;;;;120.03;18.95;;;691.40;1484.80;;;;;;5037317;28;20021;-59
2021/07/07 06:15:15;;;;;;;93.15;18.10;;;691.40;1484.80;;;;;;5037150;28;20048;-59
2021/07/07 06:17:42;;;;;;;49.83;13.48;;;691.50;1484.80;;;;;;5037004;28;20064;-60
2021/07/07 06:20:11;;;;;;;97.85;17.85;;;691.50;1484.80;;;;;;5037191;28;20083;-51
2021/07/07 06:22:41;;;;;;;90.63;15.88;;;691.60;1459.20;;;;;;5036988;28;20386;-59
2021/07/07 06:25:09;;;;;;;89.65;14.90;;;691.80;1459.20;;;;;;5036990;28;20025;-61
2021/07/07 06:27:37;;;;;;;89.63;16.08;;;691.80;1459.20;;;;;;5036906;28;20021;-57
2021/07/07 06:30:11;;;;;;;82.88;16.40;;;691.90;1459.20;;;;;;5036573;28;20013;-58
2021/07/07 06:32:38;;;;;;;87.45;15.35;;;691.90;1433.60;;;;;;5036378;28;20029;-60
2021/07/07 06:35:05;;;;;;;73.63;15.43;;;692.00;1433.60;;;;;;5036829;28;20018;-60
2021/07/07 06:37:31;;;;;;;65.20;14.65;;;692.10;1433.60;;;;;;5036995;28;20490;-59
2021/07/07 06:39:57;;;;;;;87.47;16.00;;;716.80;1433.60;;;;;;5036683;28;20022;-58
2021/07/07 06:42:22;;;;;;;80.38;15.88;;;716.90;1433.60;;;;;;5036558;28;20032;-58
2021/07/07 06:44:48;;;;;;;77.15;15.35;;;717.00;1433.60;;;;;;5036595;28;20034;-51
2021/07/07 06:47:14;;;;;;;73.90;15.93;;;717.00;1433.60;;;;;;5036575;28;20492;-59
2021/07/07 06:49:40;;;;;;;36.35;11.60;;;717.20;1408.00;;;;;;5036759;28;20055;-60
2021/07/07 06:52:07;;;;;;;40.92;12.40;;;717.30;1408.00;;;;;;5036319;28;20037;-57
2021/07/07 06:54:33;;;;;;;24.92;10.00;;;717.40;1408.00;;;;;;5036735;28;20036;-60
2021/07/07 06:56:59;;;;;;;32.45;11.07;;;717.60;1408.00;;;;;;5036277;28;20033;-60
2021/07/07 06:59:26;;;;;;;28.75;10.82;;;717.60;1382.40;;;;;;5036320;28;20382;-58
2021/07/07 07:01:52;;;;;;;35.08;11.20;;;742.40;1408.00;;;;;;5036597;28;20026;-59
2021/07/07 07:04:20;;;;;;;26.25;11.43;;;742.50;1408.00;;;;;;5036811;28;20033;-60
2021/07/07 07:06:47;;;;;;;26.63;10.27;;;742.60;1382.40;;;;;;5036615;28;20018;-59
2021/07/07 07:09:13;;;;;;;22.67;10.23;;;742.60;1382.40;;;;;;5035886;28;20120;-59
2021/07/07 07:11:41;;;;;;;20.55;10.18;;;742.60;1382.40;;;;;;5036101;28;20179;-59
2021/07/07 07:14:08;;;;;;;22.35;9.80;;;742.70;1382.40;;;;;;5036056;28;20018;-56
2021/07/07 07:16:34;;;;;;;26.67;10.68;;;742.80;1356.80;;;;;;5035090;28;20113;-60
2021/07/07 07:19:00;;;;;;;27.55;10.23;;;742.90;1382.40;;;;;;5036006;28;20022;-59
2021/07/07 07:21:26;;;;;;;23.55;10.10;;;742.90;1356.80;;;;;;5035922;28;20528;-57
2021/07/07 07:23:52;;;;;;;17.15;10.00;;;743.00;1356.80;;;;;;5035877;28;20083;-59
2021/07/07 07:26:18;;;;;;;17.30;10.88;;;743.00;1331.20;;;;;;5035868;28;20080;-59
2021/07/07 07:28:46;;;;;;;16.75;10.70;;;743.00;1356.80;;;;;;5035802;28;20096;-60
2021/07/07 07:31:12;;;;;;;19.20;10.25;;;743.10;1331.20;;;;;;5035552;28;20116;-61
2021/07/07 07:33:38;;;;;;;22.50;10.27;;;743.10;1356.80;;;;;;5035459;28;20025;-50
2021/07/07 07:36:05;;;;;;;17.90;10.52;;;743.20;1331.20;;;;;;5035517;28;20028;-60
2021/07/07 07:38:37;;;;;;;17.20;10.60;;;743.20;1331.20;;;;;;5035626;28;20022;-60
2021/07/07 07:41:03;;;;;;;19.25;10.18;;;768.00;1331.20;;;;;;5036240;28;20037;-61
2021/07/07 07:43:29;;;;;;;20.67;11.43;;;768.00;1331.20;;;;;;5035007;28;20032;-56
2021/07/07 07:45:55;;;;;;;26.20;10.07;;;768.10;1331.20;;;;;;5034775;28;20030;-60
2021/07/07 07:48:22;;;;;;;28.58;11.55;;;768.10;1331.20;;;;;;5033404;28;20036;-59
2021/07/07 07:50:49;;;;;;;15.32;10.27;;;768.20;1305.60;;;;;;5033311;28;20041;-60
2021/07/07 07:53:15;;;;;;;20.63;9.75;;;768.20;1305.60;;;;;;5033392;28;20025;-58
2021/07/07 07:55:41;;;;;;;18.52;9.50;;;768.20;1305.60;;;;;;5033586;28;20220;-60
2021/07/07 07:58:07;;;;;;;14.10;9.10;;;768.30;1280.00;;;;;;5033563;28;20021;-60
2021/07/07 08:00:33;;;;;;;12.98;9.30;;;768.30;1305.60;;;;;;5033775;28;20378;-61
2021/07/07 08:02:59;;;;;;;14.63;10.25;;;768.30;1280.00;;;;;;5035064;28;20017;-59
2021/07/07 08:05:25;;;;;;;13.40;9.75;;;768.30;1280.00;;;;;;5035119;28;20405;-58
2021/07/07 08:07:51;;;;;;;18.50;9.57;;;768.30;1280.00;;;;;;5035129;28;20025;-59
2021/07/07 08:10:21;;;;;;;16.25;10.07;;;768.30;1280.00;;;;;;5034621;28;20144;-61
2021/07/07 08:12:49;;;;;;;21.33;9.90;;;768.30;1280.00;;;;;;5034960;28;20026;-60
2021/07/07 08:15:15;;;;;;;17.70;9.88;;;768.30;1280.00;;;;;;5035143;28;20030;-58
2021/07/07 08:17:41;;;;;;;19.40;9.65;;;768.40;1280.00;;;;;;5034822;28;20036;-59
2021/07/07 08:20:10;;;;;;;28.27;10.60;;;768.40;1280.00;;;;;;5017127;28;20109;-60
2021/07/07 08:22:37;;;;;;;21.90;9.55;;;768.30;1280.00;;;;;;5034979;28;20381;-60
2021/07/07 08:25:05;;;;;;;18.35;9.55;;;768.30;1280.00;;;;;;5034785;28;20022;-60
2021/07/07 08:27:31;;;;;;;25.85;10.23;;;768.30;1280.00;;;;;;5016792;28;20478;-59
2021/07/07 08:29:57;;;;;;;22.40;10.85;;;768.30;1280.00;;;;;;5034914;28;20104;-60
2021/07/07 08:32:23;;;;;;;28.95;10.18;;;768.30;1280.00;;;;;;5034742;28;20042;-61
2021/07/07 08:34:50;;;;;;;27.15;10.10;;;768.30;1280.00;;;;;;5034744;28;20049;-58
2021/07/07 08:37:16;;;;;;;25.52;10.88;;;768.30;1228.80;;;;;;5034443;28;20457;-58
2021/07/07 08:39:42;;;;;;;26.73;11.52;;;768.30;1254.40;;;;;;5034433;28;20029;-59
2021/07/07 08:42:08;;;;;;;18.70;10.68;;;768.30;1280.00;;;;;;5033966;28;20033;-60
2021/07/07 08:44:35;;;;;;;19.00;9.52;;;768.40;1228.80;;;;;;5034229;28;20068;-60
2021/07/07 08:47:01;;;;;;;18.30;10.00;;;768.40;1228.80;;;;;;5034136;28;20067;-60
2021/07/07 08:49:27;;;;;;;16.42;8.95;;;768.50;1228.80;;;;;;5016512;28;20034;-60
2021/07/07 08:51:53;;;;;;;16.85;8.68;;;768.60;1203.20;;;;;;5033970;28;20067;-58
2021/07/07 08:54:19;;;;;;;12.75;9.10;;;768.70;1203.20;;;;;;5034264;28;20053;-60
2021/07/07 08:56:47;;;;;;;20.02;9.63;;;768.90;1203.20;;;;;;5016385;28;20025;-60
2021/07/07 08:59:15;;;;;;;17.75;9.40;;;768.90;1203.20;;;;;;5033931;28;20064;-60
2021/07/07 09:01:56;;;;;;;15.80;8.68;;;793.60;1228.80;;;;;;5034164;28;20069;-60
2021/07/07 09:04:39;;;;;;;14.10;8.35;;;793.60;1203.20;;;;;;5033849;28;20096;-61
2021/07/07 09:07:10;;;;;;;15.15;8.35;;;793.60;1152.00;;;;;;5033760;28;20052;-59
2021/07/07 09:09:40;;;;;;;16.48;9.32;;;793.70;1177.60;;;;;;5033725;28;20409;-59
2021/07/07 09:12:16;;;;;;;18.10;8.48;;;793.70;1177.60;;;;;;5033774;28;20470;-58
2021/07/07 09:14:43;;;;;;;19.42;8.60;;;793.80;1177.60;;;;;;5033640;28;20071;-61
2021/07/07 09:17:14;;;;;;;12.88;9.05;;;793.80;1177.60;;;;;;5033602;28;20359;-61
2021/07/07 09:19:41;;;;;;;15.98;9.57;;;793.80;1152.00;;;;;;5033563;28;20478;-61
2021/07/07 09:22:11;;;;;;;40.55;33.35;;;794.00;1177.60;;;;;;5033510;28;20079;-59
2021/07/07 09:24:40;;;;;;;13.75;10.73;;;794.00;1177.60;;;;;;5033432;28;20025;-59
2021/07/07 09:27:10;;;;;;;19.80;12.88;;;794.00;1152.00;;;;;;5033721;28;20055;-59
2021/07/07 09:29:52;;;;;;;13.98;12.57;;;794.00;1177.60;;;;;;5033803;28;20021;-59
2021/07/07 09:32:23;;;;;;;15.77;11.18;;;794.10;1152.00;;;;;;5033469;28;20036;-58
2021/07/07 09:34:51;;;;;;;21.90;10.95;;;794.10;1100.80;;;;;;5032843;28;20030;-59
2021/07/07 09:37:36;;;;;;;15.10;10.85;;;794.10;1152.00;;;;;;5033362;28;20037;-57
2021/07/07 09:40:04;;;;;;;14.60;11.23;;;794.00;1177.60;;;;;;5032351;28;20052;-58
2021/07/07 09:42:33;;;;;;;11.68;10.45;;;793.80;1177.60;;;;;;5015255;28;20025;-59
2021/07/07 09:44:59;;;;;;;73.53;13.70;;;793.80;1177.60;;;;;;5033631;28;20171;-59
2021/07/07 09:47:29;;;;;;;33.28;10.43;;;793.60;1177.60;;;;;;5033678;28;20052;-57
2021/07/07 09:49:56;;;;;;;63.13;13.95;;;793.60;1177.60;;;;;;5033602;28;20029;-59
2021/07/07 09:52:28;;;;;;;42.63;13.02;;;793.60;1203.20;;;;;;5033488;28;20076;-59
2021/07/07 09:54:55;;;;;;;60.27;12.83;;;768.90;1177.60;;;;;;5033258;28;20108;-57
2021/07/07 09:57:22;;;;;;;48.30;11.77;;;768.90;1177.60;;;;;;5033287;28;20342;-58
2021/07/07 09:59:48;;;;;;;34.90;11.25;;;768.80;1177.60;;;;;;5033232;28;20052;-59
2021/07/07 10:02:15;;;;;;;35.08;10.90;;;768.80;1177.60;;;;;;5033192;28;20041;-58
2021/07/07 10:04:44;;;;;;;32.22;12.15;;;768.80;1177.60;;;;;;5033224;28;20031;-59
2021/07/07 10:07:12;;;;;;;35.55;11.40;;;768.70;1203.20;;;;;;5032881;28;20095;-58
2021/07/07 10:09:40;;;;;;;40.90;11.10;;;768.70;1203.20;;;;;;5032924;28;20053;-59
2021/07/07 10:12:06;;;;;;;31.60;10.43;;;768.60;1203.20;;;;;;5032869;28;20470;-59
2021/07/07 10:14:32;;;;;;;26.92;10.93;;;768.70;1203.20;;;;;;5032665;28;20025;-59
2021/07/07 10:16:59;;;;;;;31.42;10.65;;;768.70;1177.60;;;;;;5032910;28;20040;-59
2021/07/07 10:19:26;;;;;;;35.05;10.52;;;768.70;1203.20;;;;;;5032932;28;20489;-60
2021/07/07 10:21:55;;;;;;;18.63;10.45;;;768.80;1203.20;;;;;;5030075;28;20021;-57
2021/07/07 10:24:40;;;;;;;23.75;10.07;;;768.80;1152.00;;;;;;5033180;28;20037;-60
2021/07/07 10:27:06;;;;;;;48.85;12.05;;;768.70;1203.20;;;;;;5033092;28;20026;-59
2021/07/07 10:29:35;;;;;;;47.95;12.45;;;768.70;1203.20;;;;;;5032597;28;20059;-59
2021/07/07 10:32:05;;;;;;;69.60;13.60;;;768.70;1177.60;;;;;;5032545;28;20037;-61
2021/07/07 10:34:31;;;;;;;21.30;11.27;;;768.80;1203.20;;;;;;5033270;28;20039;-61
2021/07/07 10:37:00;;;;;;;22.67;9.85;;;768.90;1177.60;;;;;;5032312;28;20490;-61
2021/07/07 10:39:27;;;;;;;18.17;10.15;;;793.60;1203.20;;;;;;5032768;28;20037;-61
2021/07/07 10:41:55;;;;;;;57.33;13.57;;;793.60;1203.20;;;;;;5014981;28;20025;-60
2021/07/07 10:44:28;;;;;;;80.07;14.98;;;793.60;1177.60;;;;;;5032667;28;20079;-60
2021/07/07 10:47:12;;;;;;;54.45;13.52;;;793.70;1177.60;;;;;;5032781;28;20071;-60
2021/07/07 10:49:51;;;;;;;64.55;12.50;;;793.80;1177.60;;;;;;5031859;28;20084;-61
2021/07/07 10:52:31;;;;;;;34.83;10.77;;;793.80;1177.60;;;;;;5033657;28;20040;-60
2021/07/07 10:55:00;;;;;;;36.50;11.80;;;793.70;1152.00;;;;;;5034796;28;20040;-59
2021/07/07 10:57:35;;;;;;;35.53;11.13;;;793.60;1177.60;;;;;;5034535;28;20497;-59
2021/07/07 11:00:03;;;;;;;24.23;10.88;;;793.60;1177.60;;;;;;5034860;28;20026;-60
2021/07/07 11:02:29;;;;;;;28.33;10.10;;;793.60;1177.60;;;;;;5036371;28;20017;-58
2021/07/07 11:04:58;;;;;;;23.52;9.73;;;793.60;1177.60;;;;;;5036586;28;20075;-59
2021/07/07 11:07:41;;;;;;;21.42;9.93;;;768.90;1152.00;;;;;;5018582;28;20045;-59
2021/07/07 11:10:12;;;;;;;22.88;9.57;;;793.60;1177.60;;;;;;5035944;28;20049;-59
2021/07/07 11:12:41;;;;;;;15.57;9.65;;;768.90;1126.40;;;;;;5018470;28;20057;-59
2021/07/07 11:15:17;;;;;;;13.63;9.30;;;768.90;1152.00;;;;;;5036423;28;20025;-60
2021/07/07 11:17:49;;;;;;;13.52;10.10;;;793.60;1177.60;;;;;;5036043;28;20021;-50
2021/07/07 11:20:19;;;;;;;12.35;9.43;;;793.60;1177.60;;;;;;5036226;28;20028;-58
2021/07/07 11:23:02;;;;;;;14.32;9.07;;;793.60;1152.00;;;;;;5035884;28;20500;-60
2021/07/07 11:25:31;;;;;;;13.40;8.93;;;793.60;1177.60;;;;;;5036167;28;20057;-60
2021/07/07 11:27:58;;;;;;;14.50;9.18;;;793.60;1177.60;;;;;;5036103;28;20030;-60
2021/07/07 11:30:24;;;;;;;11.27;9.40;;;793.70;1152.00;;;;;;5035956;28;20075;-59
2021/07/07 11:32:54;;;;;;;14.80;9.20;;;793.70;1126.40;;;;;;5035744;28;20486;-59
2021/07/07 11:35:30;;;;;;;10.85;9.60;;;793.70;1152.00;;;;;;5035935;28;20025;-60
2021/07/07 11:38:17;;;;;;;13.95;10.75;;;793.70;1152.00;;;;;;5035667;28;20032;-59
2021/07/07 11:40:43;;;;;;;12.05;9.57;;;793.80;1100.80;;;;;;5021654;28;20033;-58
2021/07/07 11:43:12;;;;;;;12.85;9.98;;;793.80;1152.00;;;;;;5035541;28;20093;-60
2021/07/07 11:46:01;;;;;;;12.73;9.55;;;793.80;1152.00;;;;;;5035768;28;20033;-57
2021/07/07 11:51:12;;;;;;;10.77;9.00;;;793.80;1177.60;;;;;;5035675;28;20037;-56
2021/07/07 11:53:41;;;;;;;13.23;9.90;;;793.80;1152.00;;;;;;5035712;28;20063;-60
2021/07/07 11:56:17;;;;;;;10.85;9.75;;;793.80;1177.60;;;;;;5035241;28;20075;-60
2021/07/07 11:58:44;;;;;;;10.52;9.43;;;793.80;1152.00;;;;;;5035231;28;20036;-60
2021/07/07 12:01:15;;;;;;;13.55;9.70;;;793.80;1152.00;;;;;;5035173;28;20031;-57
2021/07/07 12:03:41;;;;;;;11.73;9.02;;;793.80;1152.00;;;;;;5034686;28;20386;-59